Terminal Aerodrome Forecast
Issued by NWS Duluth, MN

Home | Current Version | Previous Version | Text Only | Print | Product List | Glossary On
Versions: 1 2 3 4 5 6 7 8 9 10 11 12 13 14 15 16 17 18 19 20 21 22 23 24 25 26 27 28 29 30 31
000
FTUS43 KDLH 311738
TAFDLH
TAF
KDLH 311738Z 3118/0118 10015G25KT P6SM -RA OVC005
     FM312100 12012G18KT P6SM VCTS BKN008 OVC012CB
     FM010300 13008KT 2SM BR OVC004
      TEMPO 0108/0112 3/4SM BR OVC002
     FM011500 22007KT P6SM OVC015
     FM011700 24014G22KT P6SM SCT015 BKN050=

USA.gov is the U.S. government's official web portal to all federal, state and local government web resources and services.